Tiempo atmosférico en la estación meteorológica de Riaño, León (1090 m.)



Fecha
DESCASC
Temp. máxima en grados centígrados (hora)
DESCASC
Temp. mínima en grados centígrados (hora)
DESCASC
Temp. media en grados centígrados
DESCASC
Racha de viento máxima en m/sg (hora)
DESCASC
Velocidad máxima media en intervalos de 10 minutos(hora)
DESCASC
Precipitaciones diarias en mm
DESCASC
Precipitaciones de 00:00 a 06:00 en mm
DESCASC
Precipitaciones de 06:00 a 12:00 en mm
DESCASC
Precipitaciones de 12:00 a 18:00 en mm
DESCASC
Precipitaciones de 18:00 a 24:00 en mm
DESCASC
19-09-2019 24.4 (16:30) 10.2 (08:50) 17.3 3.89 (07:30) 2.22 (07:30) 0 0 0 0 0
18-09-2019 22 (17:50) 12.2 (04:50) 17.1 10 (00:30) 5 (18:10) 2.2 0.2 1.4 0 0.6
17-09-2019 23 (15:00) 12.5 (00:00) 17.8 10 (17:40) 6.39 (17:40) 12.4 0 0 12.4 0
16-09-2019 23.1 (14:40) 9.9 (00:00) 16.5 10.28 (16:40) 6.11 (19:00) 9.8 0 0 8.2 1.6
15-09-2019 22.7 (14:50) 11 (00:00) 16.9 8.33 (16:10) 5 (16:20) 0.6 0 0 0.6 0
14-09-2019 25.7 (15:00) 11.5 (00:00) 18.6 9.44 (17:50) 5.83 (17:50) 0 0 0 0 0
13-09-2019 25.8 (14:50) 5.3 (00:00) 15.5 11.39 (18:20) 6.39 (18:10) 0 0 0 0 0
12-09-2019 26 (16:00) 5.4 (00:00) 15.7 7.78 (18:00) 5 (16:30) 0 0 0 0 0
11-09-2019 17.9 (16:00) 9.4 (00:00) 13.6 15.56 (09:10) 10.56 (09:30) 0 0 0 0 0
10-09-2019 10.2 (16:50) 5.3 (11:30) 7.8 18.06 (21:40) 10.83 (21:40) 34.2 2.2 17.4 13.8 0.8
09-09-2019 20.9 (14:50) 8.1 (08:10) 14.5 11.67 (16:10) 7.5 (15:30) 0.4 0 0 0 0.4
08-09-2019 22.5 (16:10) 4.4 (00:00) 13.5 9.72 (19:10) 6.67 (16:30) 0 0 0 0 0
07-09-2019 21 (12:50) 4.3 (00:00) 12.7 10.83 (19:10) 6.94 (18:40) 0 0 0 0 0
06-09-2019 19.1 (15:10) 9.3 (00:00) 14.2 12.5 (18:10) 6.94 (16:40) 0 0 0 0 0
05-09-2019 17.9 (16:10) 10.1 (00:00) 14 12.5 (18:50) 7.78 (18:40) 0 0 0 0 0
04-09-2019 22.9 (13:10) 6.6 (00:00) 14.7 15 (16:30) 10.83 (16:40) 0 0 0 0 0
03-09-2019 27.5 (17:10) 6.3 (00:00) 16.9 9.44 (18:50) 4.44 (17:20) 0 0 0 0 0
02-09-2019 22.1 (15:50) 10.4 (00:00) 16.3 13.06 (20:50) 7.5 (16:50) 0 0 0 0 0
01-09-2019 21.2 (15:50) 11.4 (00:00) 16.3 12.5 (19:10) 7.5 (16:10) 0 0 0 0 0
31-08-2019 29.8 (16:00) 11.3 (00:00) 20.5 14.17 (17:20) 9.44 (17:00) 0 0 0 0 0
30-08-2019 29.7 (17:00) 13.5 (00:00) 21.6 8.61 (14:50) 4.44 (19:30) 0 0 0 0 0
29-08-2019 28.5 (17:40) 14 (00:00) 21.3 9.72 (18:40) 5.56 (18:50) 0 0 0 0 0
28-08-2019 27 (15:30) 11.8 (00:00) 19.4 8.33 (21:00) 3.33 (15:10) 0 0 0 0 0
27-08-2019 25.8 (15:50) 10.2 (00:00) 18 8.33 (17:40) 5.83 (17:40) 0 0 0 0 0
26-08-2019 22.4 (15:20) 12.3 (00:00) 17.3 10 (18:50) 7.22 (19:30) 8 7.4 0 0 0.6
25-08-2019 23.8 (15:00) 12.2 (00:00) 18 13.33 (18:10) 6.94 (17:10) 3.8 0 0 0 3.8
24-08-2019 30 (17:40) 8.5 (00:00) 19.3 8.61 (20:10) 4.72 (19:10) 0 0 0 0 0
23-08-2019 29.9 (16:50) 6.1 (00:00) 18 9.17 (20:00) 5 (18:30) 0 0 0 0 0

Gráficas

Temp. máximas Temp. mínimas Temp. medias Precipitaciones Rachas de viento máximas Velocidades máximas media en intervalos de 10 minutos

Datos horarios

Fecha y hora oficial Temperatura (ºC) Velocidad del viento (km/h) Dirección del viento Racha (km/h) Dirección de racha Precipitación (mm) Presión (hPa) Tendencia (hPa) Humedad (%)
2019-09-21 23:00:00 14.3 13 Sur 47 Sur 2.4 -- -- 93
2019-09-21 22:00:00 14.1 6 Sur 42 Sur 2.2 -- -- 94
2019-09-21 21:00:00 14.3 12 Sudoeste 37 Sur 1.8 -- -- 92
2019-09-21 20:00:00 14.7 16 Sur 39 Sudoeste 1.8 -- -- 90
2019-09-21 19:00:00 14.5 18 Sur 34 Sudeste 1.4 -- -- 93
2019-09-21 18:00:00 15.1 9 Sur 23 Sur 0.8 -- -- 90
2019-09-21 17:00:00 15 12 Sudoeste 24 Sudoeste 0.4 -- -- 90
2019-09-21 16:00:00 14.9 14 Sudoeste 31 Sudoeste 0.4 -- -- 90
2019-09-21 15:00:00 14.9 14 Sudoeste 26 Sudoeste 0.4 -- -- 90
2019-09-21 14:00:00 15.2 8 Sudoeste 30 Sudoeste 0.2 -- -- 81
2019-09-21 13:00:00 15.2 11 Sudoeste 21 Sur 0 -- -- 79
2019-09-21 12:00:00 15.1 13 Sur 30 Sudoeste 0 -- -- 78
2019-09-21 11:00:00 14.2 12 Sudoeste 27 Sudoeste 0 -- -- 83
2019-09-21 10:00:00 13.7 10 Sudoeste 26 Sur 0 -- -- 83
2019-09-21 09:00:00 13.4 6 Sur 22 Sudoeste 0 -- -- 85
2019-09-21 08:00:00 13.5 10 Sur 27 Sur 0 -- -- 83
2019-09-21 07:00:00 13.6 15 Sudoeste 30 Sudoeste 0 -- -- 84
2019-09-21 06:00:00 13.3 6 Sur 29 Sudeste 0.6 -- -- 92
2019-09-21 05:00:00 13.7 18 Sur 38 Sur 0.6 -- -- 90
2019-09-21 04:00:00 13.9 17 Sur 34 Sur 0 -- -- 89
2019-09-21 03:00:00 12.9 8 Sur 16 Sudeste 0 -- -- 93
2019-09-21 02:00:00 13.2 5 Sudoeste 25 Sudoeste 0.2 -- -- 92
2019-09-21 01:00:00 12.7 2 Norte 8 Noroeste 0 -- -- 95
2019-09-21 00:00:00 13.1 3 Noroeste 12 Nordeste 0.2 -- -- 94
2019-09-20 23:00:00 13.9 6 Noroeste 37 Sur 0.8 -- -- 93
2019-09-20 22:00:00 13.8 3 Sudoeste 15 Oeste 0.4 -- -- 92
2019-09-20 21:00:00 14.3 6 Este 58 Sur 4.8 -- -- 88
2019-09-20 20:00:00 18.6 21 Sudeste 44 Este 0 -- -- 66
2019-09-20 19:00:00 21.5 4 Oeste 20 Sudeste 0 -- -- 53
2019-09-20 18:00:00 23 12 Sudeste 27 Sudeste 0 -- -- 58
2019-09-20 17:00:00 23.6 15 Sudeste 31 Sur 0 -- -- 56
2019-09-20 16:00:00 22.9 14 Sudoeste 28 Sudeste 0 -- -- 57
2019-09-20 15:00:00 21.9 13 Sudeste 27 Sur 0 -- -- 65
2019-09-20 14:00:00 21.1 10 Este 24 Este 0 -- -- 66
2019-09-20 13:00:00 16.8 3 Norte 11 Oeste 0 -- -- 83
2019-09-20 12:00:00 15.2 0 Calma 6 Este 0 -- -- 84
2019-09-20 11:00:00 12.8 3 Nordeste 6 Nordeste 0 -- -- 91
2019-09-20 10:00:00 10.5 2 Nordeste 5 Nordeste 0 -- -- 99
2019-09-20 09:00:00 9.4 0 Calma 4 Sur 0 -- -- 99
2019-09-20 08:00:00 9.2 3 Sur 5 Sudoeste 0 -- -- 98
2019-09-20 07:00:00 9.3 0 Calma 3 Sur 0 -- -- 97
2019-09-20 06:00:00 9.5 0 Calma 4 Sudoeste 0 -- -- 97
2019-09-20 05:00:00 9.8 2 Sur 3 Sudeste 0 -- -- 95
2019-09-20 04:00:00 10.1 0 Calma 3 Sur 0 -- -- 97
2019-09-20 03:00:00 10 0 Calma 2 Sudoeste 0 -- -- 95
2019-09-20 02:00:00 10.8 2 Sur 3 Sudoeste 0 -- -- 93
2019-09-20 01:00:00 11.6 0 Calma 2 Sudeste 0 -- -- 93
2019-09-20 00:00:00 12.3 0 Calma 3 Este 0 -- -- 93
2019-09-19 23:00:00 13.3 0 Calma 2 Nordeste 0 -- -- 90
2019-09-19 22:00:00 14.3 0 Calma 4 Sur 0 -- -- 89
2019-09-19 21:00:00 15.6 0 Calma 4 Sur 0 -- -- 83
2019-09-19 20:00:00 17 0 Calma 8 Sudoeste 0 -- -- 78
2019-09-19 19:00:00 18.3 3 Sur 6 Sudoeste 0 -- -- 70
2019-09-19 18:00:00 22 2 Oeste 13 Sur 0 -- -- 59
2019-09-19 17:00:00 24.4 5 Sur 11 Sur 0 -- -- 52
2019-09-19 16:00:00 23.8 4 Sudoeste 8 Norte 0 -- -- 47
2019-09-19 15:00:00 23.1 7 Nordeste 9 Norte 0 -- -- 58
2019-09-19 14:00:00 20.6 3 Nordeste 5 Nordeste 0 -- -- 68
2019-09-19 13:00:00 17.7 4 Nordeste 8 Nordeste 0 -- -- 81
2019-09-19 12:00:00 14.6 4 Nordeste 8 Nordeste 0 -- -- 91
2019-09-19 11:00:00 12.1 3 Norte 8 Nordeste 0 -- -- 96
2019-09-19 10:00:00 10.9 3 Sudeste 10 Este 0 -- -- 98
2019-09-19 09:00:00 10.2 6 Este 10 Este 0 -- -- 98
2019-09-19 08:00:00 10.4 4 Este 14 Este 0 -- -- 98
2019-09-19 07:00:00 11.1 8 Este 12 Este 0 -- -- 98
2019-09-19 06:00:00 11.3 7 Este 12 Este 0 -- -- 98
2019-09-19 05:00:00 11.6 8 Este 13 Este 0 -- -- 97
2019-09-19 04:00:00 11.9 0 Calma 10 Este 0 -- -- 97
2019-09-19 03:00:00 12.2 3 Nordeste 10 Este 0 -- -- 97
2019-09-19 02:00:00 12.6 5 Nordeste 8 Nordeste 0 -- -- 97
2019-09-19 01:00:00 12.7 2 Nordeste 5 Noroeste 0 -- -- 97
2019-09-19 00:00:00 12.7 2 Norte 5 Noroeste 0 -- -- 96
2019-09-18 23:00:00 13.3 0 Calma 3 Nordeste 0 -- -- 96
2019-09-18 22:00:00 14.1 0 Calma 6 Sur 0.2 -- -- 94
2019-09-18 21:00:00 14.8 2 Sudoeste 5 Oeste 0 -- -- 93
2019-09-18 20:00:00 15.9 0 Calma 10 Este 0 -- -- 91
2019-09-18 19:00:00 17.7 3 Sudoeste 25 Norte 0.4 -- -- 85
2019-09-18 18:00:00 21.5 5 Nordeste 12 Norte 0 -- -- 67
2019-09-18 17:00:00 20.4 0 Calma 13 Norte 0 -- -- 72
2019-09-18 16:00:00 21 4 Nordeste 6 Nordeste 0 -- -- 69
2019-09-18 15:00:00 21.3 5 Norte 8 Nordeste 0 -- -- 69
2019-09-18 14:00:00 19.6 5 Nordeste 9 Norte 0 -- -- 82
2019-09-18 13:00:00 16.6 2 Sudeste 4 Noroeste 0 -- -- 87
2019-09-18 12:00:00 14.9 0 Calma 6 Sur 0 -- -- 94
2019-09-18 11:00:00 13.4 0 Calma 6 Este 1.2 -- -- 97
2019-09-18 10:00:00 13.1 3 Este 8 Noroeste 0.2 -- -- 96
2019-09-18 09:00:00 12.5 0 Calma 9 Nordeste 0 -- -- 97
2019-09-18 08:00:00 12.5 0 Calma 5 Sur 0 -- -- 96
2019-09-18 07:00:00 12.5 0 Calma 10 Norte 0 -- -- 97
2019-09-18 06:00:00 12.5 3 Sudoeste 9 Sudoeste 0.2 -- -- 97
2019-09-18 05:00:00 12.3 2 Sudoeste 6 Noroeste 0 -- -- 96
2019-09-18 04:00:00 12.6 3 Noroeste 5 Sudoeste 0 -- -- 94
2019-09-18 03:00:00 13.6 3 Sudoeste 18 Sur 0 -- -- 89
2019-09-18 02:00:00 14 8 Sur 25 Sudoeste 0 -- -- 90
2019-09-18 01:00:00 14.5 12 Sudoeste 36 Sudeste 0 -- -- 89
2019-09-18 00:00:00 14.5 0 Calma 9 Sudoeste 0 -- -- 96
2019-09-17 23:00:00 14.7 4 Sur 7 Sur 0 -- -- 95
2019-09-17 22:00:00 14.8 3 Sudoeste 5 Sudoeste 0 -- -- 95
2019-09-17 21:00:00 14.7 3 Sudoeste 6 Sur 0 -- -- 93
2019-09-15 18:00:00 -- -- -- -- -- -- -- -- --
2019-09-15 17:00:00 -- -- -- -- -- -- -- -- --
2019-09-15 16:00:00 -- -- -- -- -- -- -- -- --
2019-09-15 15:00:00 22.5 8 Noroeste 18 Norte 0 -- -- 58
2019-09-15 14:00:00 20.4 9 Noroeste 13 Noroeste 0 -- -- 67
2019-09-15 13:00:00 17.5 3 Sur 15 Sudoeste 0.6 -- -- 80
2019-09-15 12:00:00 15.2 6 Noroeste 9 Oeste 0 -- -- 81
2019-09-15 11:00:00 15.4 3 Nordeste 6 Norte 0 -- -- 82
2019-09-15 10:00:00 12.2 0 Calma 4 Este 0 -- -- 92
2019-09-15 09:00:00 11.3 0 Calma 6 Sudoeste 0 -- -- 93
2019-09-15 08:00:00 11.1 2 Noroeste 8 Sur 0 -- -- 93
2019-09-15 07:00:00 11.3 0 Calma 9 Noroeste 0 -- -- 93
2019-09-15 06:00:00 11.8 0 Calma 6 Noroeste 0 -- -- 91
2019-09-15 05:00:00 12.4 0 Calma 5 Noroeste 0 -- -- 91
2019-09-15 04:00:00 12.8 6 Norte 14 Noroeste 0 -- -- 89
2019-09-15 03:00:00 13.1 4 Noroeste 14 Noroeste 0 -- -- 88
2019-09-15 02:00:00 13.6 3 Noroeste 10 Noroeste 0 -- -- 87
2019-09-15 01:00:00 14.5 6 Noroeste 15 Noroeste 0 -- -- 85
2019-09-15 00:00:00 15.2 5 Noroeste 14 Norte 0 -- -- 82
2019-09-14 23:00:00 15.9 5 Noroeste 10 Noroeste 0 -- -- 79
2019-09-14 22:00:00 16.9 5 Este 10 Norte 0 -- -- 73
2019-09-14 21:00:00 18.7 0 Calma 6 Este 0 -- -- 66
2019-09-14 20:00:00 20.9 4 Sudeste 17 Sudeste 0 -- -- 53
2019-09-14 19:00:00 23 12 Sudeste 31 Este 0 -- -- 47
2019-09-14 18:00:00 22.5 14 Sudeste 34 Sudeste 0 -- -- 49
2019-09-14 17:00:00 24 4 Este 20 Norte 0 -- -- 52
2019-09-14 16:00:00 25.1 8 Norte 23 Norte 0 -- -- 48
2019-09-14 15:00:00 25.7 8 Norte 19 Noroeste 0 -- -- 44
2019-09-14 14:00:00 24.3 9 Norte 18 Noroeste 0 -- -- 50
2019-09-14 13:00:00 22.8 3 Norte 15 Noroeste 0 -- -- 53
2019-09-14 12:00:00 20.5 9 Norte 14 Noroeste 0 -- -- 66
2019-09-14 11:00:00 16.5 4 Nordeste 7 Este 0 -- -- 79
2019-09-14 10:00:00 14.7 2 Nordeste 5 Norte 0 -- -- 83
2019-09-14 09:00:00 12.3 2 Este 7 Noroeste 0 -- -- 91
2019-09-14 08:00:00 11.5 5 Noroeste 9 Noroeste 0 -- -- 91
2019-09-14 07:00:00 11.8 6 Norte 13 Noroeste 0 -- -- 90
2019-09-14 06:00:00 -- -- -- -- -- -- -- -- --
2019-09-14 05:00:00 -- -- -- -- -- -- -- -- --
2019-09-14 04:00:00 -- -- -- -- -- -- -- -- --
2019-09-14 03:00:00 12.7 2 Oeste 11 Noroeste 0 -- -- 86
2019-09-14 02:00:00 13.3 4 Noroeste 14 Noroeste 0 -- -- 85
2019-09-14 01:00:00 13.7 2 Sudoeste 9 Noroeste 0 -- -- 83
2019-09-14 00:00:00 13.5 0 Calma 8 Sudoeste 0 -- -- 79
2019-09-13 23:00:00 13.6 2 Norte 4 Norte 0 -- -- 74
2019-09-13 22:00:00 15.3 0 Calma 10 Sur 0 -- -- 67
2019-09-13 21:00:00 18 6 Sur 19 Sudeste 0 -- -- 53
2019-09-13 20:00:00 20 6 Sur 34 Sudeste 0 -- -- 49
2019-09-13 19:00:00 22.4 15 Sudeste 41 Sudeste 0 -- -- 45
2019-09-13 18:00:00 24.4 17 Sudeste 40 Sudeste 0 -- -- 40
2019-09-13 17:00:00 24.7 14 Norte 28 Nordeste 0 -- -- 42
2019-09-13 16:00:00 25.4 12 Norte 32 Nordeste 0 -- -- 35
2019-09-13 15:00:00 25.8 13 Norte 24 Noroeste 0 -- -- 37
2019-09-13 14:00:00 23.5 5 Este 9 Norte 0 -- -- 48
2019-09-13 13:00:00 20.6 4 Nordeste 9 Norte 0 -- -- 52
2019-09-13 12:00:00 16.9 3 Norte 7 Norte 0 -- -- 60
2019-09-13 11:00:00 12.8 3 Nordeste 5 Nordeste 0 -- -- 77
2019-09-13 10:00:00 9.7 3 Este 7 Este 0 -- -- 87
2019-09-13 09:00:00 6.4 0 Calma 4 Sudeste 0 -- -- 96
2019-09-13 08:00:00 5.5 0 Calma 4 Noroeste 0 -- -- 96
2019-09-13 07:00:00 5.7 2 Noroeste 6 Noroeste 0 -- -- 96
2019-09-13 06:00:00 6 0 Calma 3 Noroeste 0 -- -- 95
2019-09-13 05:00:00 6.6 2 Norte 4 Norte 0 -- -- 94
2019-09-13 04:00:00 7.1 0 Calma 4 Norte 0 -- -- 93
2019-09-13 03:00:00 7.9 0 Calma 4 Norte 0 -- -- 93
2019-09-13 02:00:00 8.8 2 Norte 6 Noroeste 0 -- -- 92
2019-09-13 01:00:00 9.7 2 Noroeste 8 Noroeste 0 -- -- 89
2019-09-13 00:00:00 11.1 0 Calma 4 Sur 0 -- -- 87
2019-09-12 23:00:00 12.4 2 Norte 10 Noroeste 0 -- -- 83
2019-09-12 22:00:00 14.5 0 Calma 7 Noroeste 0 -- -- 75
2019-09-12 21:00:00 17 2 Noroeste 7 Este 0 -- -- 64
2019-09-12 20:00:00 19.5 0 Calma 10 Noroeste 0 -- -- 50
2019-09-12 19:00:00 23.6 6 Norte 23 Nordeste 0 -- -- 41
2019-09-12 18:00:00 23.6 16 Norte 28 Norte 0 -- -- 40
2019-09-12 17:00:00 24.6 15 Norte 26 Nordeste 0 -- -- 43
2019-09-12 16:00:00 26 8 Norte 13 Noroeste 0 -- -- 41
2019-09-12 15:00:00 25 8 Norte 14 Nordeste 0 -- -- 44
2019-09-12 14:00:00 22.1 3 Nordeste 6 Este 0 -- -- 44
2019-09-12 13:00:00 19.4 6 Norte 8 Norte 0 -- -- 58
2019-09-12 12:00:00 14.8 4 Nordeste 7 Nordeste 0 -- -- 66
2019-09-12 11:00:00 10 3 Nordeste 8 Sudeste 0 -- -- 88
2019-09-12 10:00:00 6.3 0 Calma 9 Este 0 -- -- 98
2019-09-12 09:00:00 5.8 3 Nordeste 12 Este 0 -- -- 99
2019-09-12 08:00:00 5.7 3 Norte 10 Sudoeste 0 -- -- 98
2019-09-12 07:00:00 6.1 4 Este 10 Este 0 -- -- 98
2019-09-12 06:00:00 6.5 4 Sudeste 14 Este 0 -- -- 98
2019-09-12 05:00:00 6.8 6 Este 11 Este 0 -- -- 97
2019-09-12 04:00:00 6.7 2 Sur 4 Nordeste 0 -- -- 96
2019-09-12 03:00:00 6.6 0 Calma 10 Norte 0 -- -- 95
2019-09-12 02:00:00 7.4 3 Nordeste 6 Este 0 -- -- 94
2019-09-12 01:00:00 8.3 4 Norte 10 Este 0 -- -- 92
2019-09-12 00:00:00 9.9 3 Sur 16 Este 0 -- -- 88
2019-09-11 23:00:00 10.7 4 Sudeste 14 Este 0 -- -- 86
2019-09-11 22:00:00 11.6 4 Sudoeste 33 Nordeste 0 -- -- 82
2019-09-11 21:00:00 12.8 17 Norte 38 Norte 0 -- -- 79
2019-09-11 20:00:00 13.9 19 Norte 31 Norte 0 -- -- 75
2019-09-11 19:00:00 15.9 8 Norte 38 Norte 0 -- -- 67
2019-09-11 18:00:00 17.6 12 Norte 33 Norte 0 -- -- 65
2019-09-11 17:00:00 17 15 Norte 36 Norte 0 -- -- 67
2019-09-11 16:00:00 17.9 25 Norte 36 Norte 0 -- -- 65
2019-09-11 15:00:00 17.5 21 Norte 32 Norte 0 -- -- 65
2019-09-11 14:00:00 16.6 14 Norte 32 Noroeste 0 -- -- 66
2019-09-11 13:00:00 14.4 20 Noroeste 43 Norte 0 -- -- 70
2019-09-11 12:00:00 14 27 Norte 51 Norte 0 -- -- 73
2019-09-11 11:00:00 12.8 26 Norte 46 Norte 0 -- -- 79
2019-09-11 10:00:00 11.4 31 Norte 56 Norte 0 -- -- 83
2019-09-11 09:00:00 10 31 Norte 47 Norte 0 -- -- 87
2019-09-11 08:00:00 9.5 25 Norte 32 Norte 0 -- -- 91
2019-09-11 07:00:00 9.5 21 Norte 30 Norte 0 -- -- 91
2019-09-11 06:00:00 9.4 22 Norte 38 Norte 0 -- -- 89
2019-09-11 05:00:00 9.7 21 Norte 33 Norte 0 -- -- 87
2019-09-11 04:00:00 9.9 24 Norte 36 Nordeste 0 -- -- 88
2019-09-11 03:00:00 10.1 26 Norte 36 Norte 0 -- -- 88
2019-09-11 02:00:00 10.1 20 Norte 35 Norte 0 -- -- 89
2019-09-11 01:00:00 10 18 Norte 44 Norte 0 -- -- 88
2019-09-11 00:00:00 10 19 Norte 46 Norte 0 -- -- 86
2019-09-10 23:00:00 9.9 20 Norte 59 Norte 0 -- -- 86
2019-09-10 22:00:00 9.8 33 Norte 65 Norte 0 -- -- 92
2019-09-10 21:00:00 9.6 30 Norte 57 Norte 0.2 -- -- 93
2019-09-10 20:00:00 9.8 21 Norte 39 Norte 0.4 -- -- 95
2019-09-10 19:00:00 9.8 22 Norte 42 Norte 0.2 -- -- 94
2019-09-10 18:00:00 9.8 14 Noroeste 36 Norte 0.8 -- -- 87
2019-09-10 17:00:00 10.1 13 Noroeste 31 Nordeste 1.4 -- -- 92
2019-09-10 16:00:00 9.7 7 Noroeste 32 Noroeste 1 -- -- 89
2019-09-10 15:00:00 8.9 8 Noroeste 28 Norte 3.2 -- -- 88
2019-09-10 14:00:00 8.5 7 Noroeste 23 Oeste 4.2 -- -- 91
2019-09-10 13:00:00 7.6 6 Sudoeste 21 Norte 3.2 -- -- 92
2019-09-10 12:00:00 5.6 7 Sudoeste 21 Oeste 5.6 -- -- 92
2019-09-10 11:00:00 5.7 7 Noroeste 36 Noroeste 6 -- -- 90
2019-09-10 10:00:00 6.6 9 Noroeste 33 Noroeste 3 -- -- 92
2019-09-10 09:00:00 6.5 10 Noroeste 26 Oeste 0.4 -- -- 88
2019-09-10 08:00:00 5.8 15 Noroeste 33 Noroeste 1.8 -- -- 88
2019-09-10 07:00:00 6.4 13 Norte 39 Norte 0.6 -- -- 87
2019-09-10 06:00:00 6.4 8 Norte 52 Norte 0.6 -- -- 87
2019-09-10 05:00:00 7 22 Norte 52 Nordeste 0 -- -- 83
2019-09-10 04:00:00 7.2 21 Norte 40 Norte 0.2 -- -- 86
2019-09-10 03:00:00 7.2 27 Norte 51 Norte 0.2 -- -- 88
2019-09-10 02:00:00 7.5 3 Oeste 36 Oeste 1 -- -- 88
2019-09-10 01:00:00 9 10 Norte 46 Noroeste 0.2 -- -- 90
2019-09-10 00:00:00 10 17 Noroeste 40 Noroeste 0.4 -- -- 81
2019-09-09 23:00:00 12.1 15 Norte 36 Nordeste 0 -- -- 81
2019-09-09 22:00:00 12.9 14 Noroeste 34 Noroeste 0 -- -- 68
2019-09-09 21:00:00 13.4 15 Norte 34 Norte 0 -- -- 67
2019-09-09 20:00:00 14.4 13 Noroeste 33 Nordeste 0 -- -- 65
2019-09-09 19:00:00 15.5 14 Norte 38 Norte 0 -- -- 61
2019-09-09 18:00:00 17.5 14 Norte 33 Nordeste 0 -- -- 56
2019-09-09 17:00:00 17.9 19 Norte 42 Norte 0 -- -- 58
2019-09-09 16:00:00 19.7 15 Norte 39 Nordeste 0 -- -- 40
2019-09-09 15:00:00 20.8 14 Norte 29 Norte 0 -- -- 38
2019-09-09 14:00:00 20.3 4 Norte 13 Nordeste 0 -- -- 50
2019-09-09 13:00:00 17.6 3 Nordeste 9 Este 0 -- -- 63
2019-09-09 12:00:00 13.8 3 Norte 9 Norte 0 -- -- 79
2019-09-09 11:00:00 9.9 2 Oeste 8 Nordeste 0 -- -- 91
2019-09-09 10:00:00 8.8 3 Este 11 Este 0 -- -- 97
2019-09-09 09:00:00 8.2 7 Este 13 Este 0 -- -- 97
2019-09-09 08:00:00 8.2 9 Este 14 Este 0 -- -- 96
2019-09-09 07:00:00 8.5 9 Este 14 Este 0 -- -- 95
2019-09-09 06:00:00 8.9 4 Este 14 Este 0 -- -- 94
2019-09-09 05:00:00 9.3 6 Este 12 Este 0 -- -- 93
2019-09-09 04:00:00 9.7 5 Este 10 Este 0 -- -- 92
2019-09-09 03:00:00 10 6 Nordeste 10 Este 0 -- -- 91
2019-09-09 02:00:00 10.1 3 Norte 8 Este 0 -- -- 91
2019-09-09 01:00:00 10 3 Noroeste 6 Noroeste 0 -- -- 90
2019-09-09 00:00:00 11.6 3 Sur 20 Nordeste 0 -- -- 88
2019-09-08 23:00:00 12.9 4 Sur 18 Nordeste 0 -- -- 87
2019-09-08 22:00:00 13.8 4 Sur 33 Nordeste 0 -- -- 83
2019-09-08 21:00:00 14.9 9 Noroeste 32 Norte 0 -- -- 79
2019-09-08 20:00:00 16.4 10 Noroeste 35 Nordeste 0 -- -- 73
2019-09-08 19:00:00 19.3 19 Norte 35 Norte 0 -- -- 61
2019-09-08 18:00:00 21.4 22 Norte 31 Noroeste 0 -- -- 55
2019-09-08 17:00:00 22.2 23 Norte 32 Norte 0 -- -- 51
2019-09-08 16:00:00 22.3 21 Norte 28 Norte 0 -- -- 51
2019-09-08 15:00:00 22.1 22 Norte 27 Norte 0 -- -- 49
2019-09-08 14:00:00 22 12 Norte 18 Norte 0 -- -- 46
2019-09-08 13:00:00 19.4 6 Nordeste 9 Norte 0 -- -- 49
2019-09-08 12:00:00 16.3 4 Nordeste 8 Nordeste 0 -- -- 63
2019-09-08 11:00:00 12.2 5 Nordeste 8 Nordeste 0 -- -- 78
2019-09-08 10:00:00 7.8 3 Nordeste 8 Nordeste 0 -- -- 98
2019-09-08 09:00:00 6.1 3 Este 6 Este 0 -- -- 98
2019-09-08 08:00:00 4.6 0 Calma 3 Norte 0 -- -- 96
2019-09-08 07:00:00 4.5 0 Calma 4 Nordeste 0 -- -- 96
2019-09-08 06:00:00 4.9 3 Noroeste 6 Noroeste 0 -- -- 94
2019-09-08 05:00:00 5.9 2 Nordeste 5 Este 0 -- -- 94
2019-09-08 04:00:00 7 0 Calma 7 Sur 0 -- -- 92
2019-09-08 03:00:00 8.1 3 Sudeste 16 Nordeste 0 -- -- 89
2019-09-08 02:00:00 9.2 2 Sudoeste 19 Norte 0 -- -- 86
2019-09-08 01:00:00 10.6 9 Norte 27 Norte 0 -- -- 84
2019-09-08 00:00:00 11.6 11 Norte 29 Norte 0 -- -- 79
2019-09-07 23:00:00 12.2 11 Norte 26 Nordeste 0 -- -- 75
2019-09-07 22:00:00 12.6 7 Norte 31 Noroeste 0 -- -- 76
2019-09-07 21:00:00 13.4 14 Norte 36 Noroeste 0 -- -- 74
2019-09-07 20:00:00 14.7 17 Noroeste 39 Norte 0 -- -- 68
2019-09-07 19:00:00 17.5 22 Norte 39 Norte 0 -- -- 57
2019-09-07 18:00:00 19.2 18 Norte 38 Nordeste 0 -- -- 51
2019-09-07 17:00:00 19.9 17 Norte 37 Noroeste 0 -- -- 43
2019-09-07 16:00:00 20.5 21 Noroeste 33 Noroeste 0 -- -- 33
2019-09-07 15:00:00 20.6 15 Noroeste 30 Nordeste 0 -- -- 32
2019-09-07 14:00:00 20.6 18 Noroeste 32 Noroeste 0 -- -- 29
2019-09-07 13:00:00 20.8 12 Norte 21 Norte 0 -- -- 29
2019-09-07 12:00:00 18.2 18 Norte 22 Norte 0 -- -- 42
2019-09-07 11:00:00 15 8 Norte 17 Nordeste 0 -- -- 52
2019-09-07 10:00:00 11.5 9 Norte 22 Norte 0 -- -- 63
2019-09-07 09:00:00 7.4 4 Noroeste 10 Oeste 0 -- -- 71
2019-09-07 08:00:00 4.3 2 Sudoeste 7 Sudoeste 0 -- -- 84
2019-09-07 07:00:00 5.2 0 Calma 8 Sudoeste 0 -- -- 83
2019-09-07 06:00:00 5.8 3 Noroeste 10 Nordeste 0 -- -- 82
2019-09-07 05:00:00 7.5 11 Norte 21 Nordeste 0 -- -- 77
2019-09-07 04:00:00 8.6 12 Norte 32 Norte 0 -- -- 72
2019-09-07 03:00:00 8.4 10 Norte 37 Norte 0 -- -- 73
2019-09-07 02:00:00 8.9 17 Norte 39 Nordeste 0 -- -- 73
2019-09-07 01:00:00 9 17 Norte 28 Norte 0 -- -- 77
2019-09-07 00:00:00 9.3 13 Norte 40 Norte 0 -- -- 77
2019-09-06 23:00:00 9.9 13 Norte 40 Noroeste 0 -- -- 77
2019-09-06 22:00:00 10.5 24 Noroeste 40 Noroeste 0 -- -- 75
2019-09-06 21:00:00 11.2 19 Noroeste 37 Nordeste 0 -- -- 73
2019-09-06 20:00:00 12.6 13 Norte 37 Noroeste 0 -- -- 69
2019-09-06 19:00:00 15.2 15 Norte 45 Noroeste 0 -- -- 59
2019-09-06 18:00:00 16 22 Norte 40 Noroeste 0 -- -- 58
2019-09-06 17:00:00 17.3 21 Norte 43 Noroeste 0 -- -- 55
2019-09-06 16:00:00 18.5 22 Noroeste 40 Norte 0 -- -- 54
2019-09-06 15:00:00 18.8 18 Noroeste 38 Norte 0 -- -- 50
2019-09-06 14:00:00 17.6 20 Noroeste 42 Norte 0 -- -- 49
2019-09-06 13:00:00 15.7 21 Noroeste 39 Noroeste 0 -- -- 49
2019-09-06 12:00:00 15.1 16 Norte 34 Nordeste 0 -- -- 55
2019-09-06 11:00:00 13 17 Norte 38 Noroeste 0 -- -- 62
2019-09-06 10:00:00 11.5 19 Norte 42 Nordeste 0 -- -- 69
2019-09-06 09:00:00 10.5 17 Norte 43 Noroeste 0 -- -- 73
2019-09-06 08:00:00 9.5 18 Noroeste 41 Norte 0 -- -- 77
2019-09-06 07:00:00 9.4 17 Norte 36 Norte 0 -- -- 78
2019-09-06 06:00:00 9.5 17 Norte 32 Nordeste 0 -- -- 75
2019-09-06 05:00:00 9.6 13 Norte 36 Norte 0 -- -- 75
2019-09-06 04:00:00 9.9 16 Norte 43 Norte 0 -- -- 76
2019-09-06 03:00:00 9.9 12 Norte 30 Noroeste 0 -- -- 76
2019-09-06 02:00:00 9.5 15 Norte 24 Norte 0 -- -- 83
2019-09-06 01:00:00 9.8 13 Norte 23 Norte 0 -- -- 80
2019-09-06 00:00:00 10.3 13 Norte 25 Norte 0 -- -- 76
2019-09-05 23:00:00 10.7 14 Norte 28 Norte 0 -- -- 79
2019-09-05 22:00:00 11.2 13 Noroeste 30 Norte 0 -- -- 77
2019-09-05 21:00:00 11.6 18 Noroeste 33 Noroeste 0 -- -- 76
2019-09-05 20:00:00 12.7 14 Norte 39 Norte 0 -- -- 74
2019-09-05 19:00:00 14.9 24 Norte 45 Norte 0 -- -- 65
2019-09-05 18:00:00 16.9 22 Norte 40 Norte 0 -- -- 60
2019-09-05 17:00:00 17.2 19 Norte 39 Norte 0 -- -- 58
2019-09-05 16:00:00 17.7 21 Norte 40 Noroeste 0 -- -- 58
2019-09-05 15:00:00 16.9 17 Norte 36 Norte 0 -- -- 54
2019-09-05 14:00:00 17.8 17 Noroeste 29 Norte 0 -- -- 52
2019-09-05 13:00:00 14.7 14 Norte 37 Norte 0 -- -- 58
2019-09-05 12:00:00 15 16 Norte 33 Norte 0 -- -- 55
2019-09-05 11:00:00 13.7 15 Norte 39 Norte 0 -- -- 61
2019-09-05 10:00:00 12.3 19 Norte 37 Norte 0 -- -- 69
2019-09-05 09:00:00 10.2 17 Norte 41 Norte 0 -- -- 79
2019-09-05 08:00:00 10.2 26 Norte 41 Norte 0 -- -- 81
2019-09-05 07:00:00 10.6 21 Norte 38 Norte 0 -- -- 83
2019-09-05 06:00:00 11.1 23 Norte 44 Nordeste 0 -- -- 84
2019-09-05 05:00:00 11.3 18 Norte 41 Nordeste 0 -- -- 85
2019-09-05 04:00:00 11.7 26 Norte 36 Norte 0 -- -- 89
2019-09-05 03:00:00 11.7 25 Norte 33 Norte 0 -- -- 89
2019-09-05 02:00:00 11.5 14 Norte 37 Norte 0 -- -- 82
2019-09-05 01:00:00 11.4 28 Norte 35 Norte 0 -- -- 78
2019-09-05 00:00:00 11.8 22 Norte 41 Norte 0 -- -- 80
2019-09-04 23:00:00 12.7 20 Norte 48 Norte 0 -- -- 75
2019-09-04 22:00:00 12.9 24 Norte 41 Norte 0 -- -- 74
2019-09-04 21:00:00 14 26 Norte 35 Norte 0 -- -- 75
2019-09-04 20:00:00 15.3 16 Norte 37 Norte 0 -- -- 69
2019-09-04 19:00:00 17.7 28 Norte 47 Norte 0 -- -- 60
2019-09-04 18:00:00 17.7 24 Norte 48 Norte 0 -- -- 60
2019-09-04 17:00:00 19.3 33 Norte 54 Norte 0 -- -- 62
2019-09-04 16:00:00 21.3 28 Norte 49 Norte 0 -- -- 59
2019-09-04 15:00:00 22.6 29 Norte 40 Norte 0 -- -- 55
2019-09-04 14:00:00 22.5 31 Norte 40 Norte 0 -- -- 56
2019-09-04 13:00:00 22.8 22 Norte 31 Norte 0 -- -- 54
2019-09-04 12:00:00 19.4 4 Este 8 Este 0 -- -- 60
2019-09-04 11:00:00 15.2 2 Nordeste 8 Nordeste 0 -- -- 69
2019-09-04 10:00:00 12.1 4 Nordeste 7 Nordeste 0 -- -- 82
2019-09-04 09:00:00 9.1 2 Sudeste 4 Sudeste 0 -- -- 94
2019-09-04 08:00:00 6.6 0 Calma 4 Este 0 -- -- 95
2019-09-04 07:00:00 6.8 0 Calma 2 Norte 0 -- -- 94
2019-09-04 06:00:00 7.2 0 Calma 5 Noroeste 0 -- -- 93
2019-09-04 05:00:00 8 0 Calma 2 Norte 0 -- -- 93
2019-09-04 04:00:00 8.8 0 Calma 0 Calma 0 -- -- 93
2019-09-04 03:00:00 9.6 2 Noroeste 4 Norte 0 -- -- 90
2019-09-04 02:00:00 10.4 0 Calma 2 Este 0 -- -- 87
2019-09-04 01:00:00 11.7 0 Calma 4 Sur 0 -- -- 83
2019-09-04 00:00:00 12.9 0 Calma 5 Noroeste 0 -- -- 80
2019-09-03 23:00:00 14.8 2 Norte 9 Noroeste 0 -- -- 75
2019-09-03 22:00:00 17.1 4 Este 18 Nordeste 0 -- -- 70
2019-09-03 21:00:00 19.6 4 Sudoeste 28 Norte 0 -- -- 60
2019-09-03 20:00:00 21.1 15 Norte 33 Norte 0 -- -- 57
2019-09-03 19:00:00 24.6 10 Norte 34 Nordeste 0 -- -- 44
2019-09-03 18:00:00 26.7 12 Norte 24 Norte 0 -- -- 37
2019-09-03 17:00:00 27.4 14 Norte 19 Norte 0 -- -- 35
2019-09-03 16:00:00 27.2 13 Norte 20 Norte 0 -- -- 34
2019-09-03 15:00:00 27.2 8 Norte 12 Norte 0 -- -- 32
2019-09-03 14:00:00 24.6 4 Nordeste 7 Nordeste 0 -- -- 36
2019-09-03 13:00:00 20.7 4 Nordeste 6 Nordeste 0 -- -- 43
2019-09-03 12:00:00 16.5 5 Nordeste 7 Nordeste 0 -- -- 60
2019-09-03 11:00:00 12.2 3 Nordeste 7 Nordeste 0 -- -- 74
2019-09-03 10:00:00 8.6 4 Este 7 Este 0 -- -- 87
2019-09-03 09:00:00 6.4 4 Este 9 Nordeste 0 -- -- 97
2019-09-03 08:00:00 6.3 3 Sudeste 12 Este 0 -- -- 97
2019-09-03 07:00:00 6.7 6 Este 11 Este 0 -- -- 96
2019-09-03 06:00:00 7.4 5 Este 12 Este 0 -- -- 96
2019-09-03 05:00:00 7.9 7 Este 12 Este 0 -- -- 95
2019-09-03 04:00:00 8.3 3 Nordeste 9 Este 0 -- -- 94
2019-09-03 03:00:00 8.1 0 Calma 4 Este 0 -- -- 95
2019-09-03 02:00:00 8.5 0 Calma 6 Este 0 -- -- 92
2019-09-03 01:00:00 9.8 2 Norte 5 Sur 0 -- -- 90
2019-09-03 00:00:00 11.7 3 Sur 19 Nordeste 0 -- -- 86
2019-09-02 23:00:00 13.1 6 Sudeste 32 Nordeste 0 -- -- 84
2019-09-02 22:00:00 13.8 13 Norte 37 Norte 0 -- -- 82
2019-09-02 21:00:00 14.6 22 Norte 47 Norte 0 -- -- 80
2019-09-02 20:00:00 16.8 23 Norte 38 Norte 0 -- -- 70
2019-09-02 19:00:00 20.1 20 Norte 37 Norte 0 -- -- 61
2019-09-02 18:00:00 21.3 23 Norte 35 Norte 0 -- -- 58
2019-09-02 17:00:00 21.9 25 Norte 34 Norte 0 -- -- 55
2019-09-02 16:00:00 22.1 24 Norte 32 Norte 0 -- -- 52
2019-09-02 15:00:00 21.2 20 Norte 27 Norte 0 -- -- 55
2019-09-02 14:00:00 20.3 18 Norte 24 Norte 0 -- -- 55
2019-09-02 13:00:00 18.4 20 Norte 29 Norte 0 -- -- 59
2019-09-02 12:00:00 17.1 24 Norte 31 Norte 0 -- -- 65
2019-09-02 11:00:00 15 18 Norte 33 Norte 0 -- -- 65
2019-09-02 10:00:00 13.3 21 Norte 36 Norte 0 -- -- 68
2019-09-02 09:00:00 11.6 21 Norte 42 Norte 0 -- -- 77
2019-09-02 08:00:00 10.5 15 Norte 34 Nordeste 0 -- -- 82
2019-09-02 07:00:00 10.7 15 Noroeste 33 Noroeste 0 -- -- 82
2019-09-02 06:00:00 11 15 Noroeste 32 Noroeste 0 -- -- 82
2019-09-02 05:00:00 11.3 16 Noroeste 32 Noroeste 0 -- -- 83
2019-09-02 04:00:00 11.3 14 Norte 32 Nordeste 0 -- -- 84
2019-09-02 03:00:00 11.3 13 Norte 27 Noroeste 0 -- -- 84
2019-09-02 02:00:00 11.3 12 Noroeste 37 Noroeste 0 -- -- 83
2019-09-02 01:00:00 11.2 15 Norte 38 Norte 0 -- -- 82
2019-09-02 00:00:00 11.4 13 Norte 40 Noroeste 0 -- -- 81
2019-09-01 23:00:00 11.6 17 Noroeste 37 Noroeste 0 -- -- 81
2019-09-01 22:00:00 12.1 18 Norte 35 Nordeste 0 -- -- 82
2019-09-01 21:00:00 12.7 16 Norte 36 Norte 0 -- -- 80
2019-09-01 20:00:00 14.2 15 Norte 45 Norte 0 -- -- 77
2019-09-01 19:00:00 16.3 23 Norte 39 Nordeste 0 -- -- 72
2019-09-01 18:00:00 18.6 22 Norte 39 Norte 0 -- -- 66
2019-09-01 17:00:00 19.2 24 Norte 39 Norte 0 -- -- 67
2019-09-01 16:00:00 20.7 27 Norte 41 Norte 0 -- -- 63
2019-09-01 15:00:00 19.8 22 Noroeste 37 Norte 0 -- -- 64
2019-09-01 14:00:00 19.6 18 Norte 34 Norte 0 -- -- 64
2019-09-01 13:00:00 19.6 16 Norte 32 Noroeste 0 -- -- 66
2019-09-01 12:00:00 17.7 16 Norte 34 Norte 0 -- -- 68
2019-09-01 11:00:00 17.1 19 Norte 28 Norte 0 -- -- 72
2019-09-01 10:00:00 15.5 19 Norte 26 Norte 0 -- -- 76
2019-09-01 09:00:00 13.9 14 Norte 23 Norte 0 -- -- 88
2019-09-01 08:00:00 13.2 8 Este 23 Norte 0 -- -- 91
2019-09-01 07:00:00 13.4 13 Norte 23 Nordeste 0 -- -- 92
2019-09-01 06:00:00 13.4 10 Norte 20 Norte 0 -- -- 92
2019-09-01 05:00:00 14 9 Norte 24 Nordeste 0 -- -- 90
2019-09-01 04:00:00 13.9 15 Nordeste 23 Norte 0 -- -- 94
2019-09-01 03:00:00 13.5 2 Este 13 Nordeste 0 -- -- 91
2019-09-01 02:00:00 14.2 4 Nordeste 20 Nordeste 0 -- -- 91
2019-09-01 01:00:00 14.8 14 Nordeste 30 Nordeste 0 -- -- 92
2019-09-01 00:00:00 15.4 14 Nordeste 32 Nordeste 0 -- -- 89
2019-08-31 23:00:00 16.3 16 Norte 31 Nordeste 0 -- -- 87
2019-08-31 22:00:00 16.5 18 Norte 39 Norte 0 -- -- 87
2019-08-31 21:00:00 17.7 26 Norte 39 Norte 0 -- -- 83
2019-08-31 20:00:00 18.8 26 Norte 45 Norte 0 -- -- 78
2019-08-31 19:00:00 20.5 25 Norte 46 Nordeste 0 -- -- 73
2019-08-31 18:00:00 20.3 23 Norte 51 Norte 0 -- -- 76
2019-08-31 17:00:00 22.8 34 Norte 49 Norte 0 -- -- 66
2019-08-31 16:00:00 29.8 19 Sur 30 Sur 0 -- -- 33
2019-08-31 15:00:00 28.9 7 Oeste 28 Sudoeste 0 -- -- 36
2019-08-31 14:00:00 28.3 7 Sur 22 Sudoeste 0 -- -- 37
2019-08-31 13:00:00 26.6 7 Norte 10 Norte 0 -- -- 51
2019-08-31 12:00:00 21.9 4 Nordeste 6 Este 0 -- -- 65
2019-08-31 11:00:00 18.1 4 Nordeste 6 Nordeste 0 -- -- 73
2019-08-31 10:00:00 14.4 3 Este 6 Este 0 -- -- 86
2019-08-31 09:00:00 12.2 3 Este 5 Nordeste 0 -- -- 97
2019-08-31 08:00:00 11.6 2 Sur 6 Nordeste 0 -- -- 95
2019-08-31 07:00:00 11.5 0 Calma 4 Sur 0 -- -- 96
2019-08-31 06:00:00 11.4 0 Calma 3 Noroeste 0 -- -- 94
2019-08-31 05:00:00 11.7 0 Calma 4 Noroeste 0 -- -- 94
2019-08-31 04:00:00 12.4 0 Calma 4 Noroeste 0 -- -- 93
2019-08-31 03:00:00 13 0 Calma 3 Sur 0 -- -- 91
2019-08-31 02:00:00 13.9 0 Calma 5 Sudeste 0 -- -- 88
2019-08-31 01:00:00 14.9 0 Calma 7 Sur 0 -- -- 86
2019-08-31 00:00:00 16.2 2 Noroeste 8 Norte 0 -- -- 82
2019-08-30 23:00:00 17.9 3 Norte 9 Noroeste 0 -- -- 77
2019-08-30 22:00:00 20.2 2 Nordeste 18 Nordeste 0 -- -- 69
2019-08-30 21:00:00 21.8 3 Sudeste 26 Nordeste 0 -- -- 63
2019-08-30 20:00:00 23.6 9 Norte 29 Norte 0 -- -- 60
2019-08-30 19:00:00 29 5 Sudoeste 22 Sudoeste 0 -- -- 38
2019-08-30 18:00:00 29.1 8 Sudoeste 16 Sudoeste 0 -- -- 35
2019-08-30 17:00:00 29.7 8 Sudoeste 21 Oeste 0 -- -- 34
2019-08-30 16:00:00 28.8 7 Oeste 27 Oeste 0 -- -- 37
2019-08-30 15:00:00 28.1 10 Sudoeste 31 Sudoeste 0 -- -- 39
2019-08-30 14:00:00 28 8 Nordeste 14 Norte 0 -- -- 47
2019-08-30 13:00:00 24.5 3 Nordeste 7 Nordeste 0 -- -- 61
2019-08-30 12:00:00 20.4 5 Nordeste 8 Nordeste 0 -- -- 77
2019-08-30 11:00:00 15.7 3 Nordeste 8 Nordeste 0 -- -- 91
2019-08-30 10:00:00 14.1 2 Sudeste 11 Este 0 -- -- 95
2019-08-30 09:00:00 13.5 6 Este 13 Este 0 -- -- 96
2019-08-30 08:00:00 13.6 8 Este 15 Este 0 -- -- 95
2019-08-30 07:00:00 14.1 8 Este 14 Este 0 -- -- 94
2019-08-30 06:00:00 14.5 8 Este 16 Este 0 -- -- 94
2019-08-30 05:00:00 14.8 4 Este 12 Este 0 -- -- 93
2019-08-30 04:00:00 14.7 0 Calma 9 Este 0 -- -- 93
2019-08-30 03:00:00 14.7 4 Nordeste 8 Nordeste 0 -- -- 93
2019-08-30 02:00:00 15.5 0 Calma 17 Este 0 -- -- 89
2019-08-30 01:00:00 16.3 10 Este 23 Norte 0 -- -- 89
2019-08-30 00:00:00 16.6 14 Norte 28 Nordeste 0 -- -- 88
2019-08-29 23:00:00 17 6 Norte 26 Nordeste 0 -- -- 87
2019-08-29 22:00:00 17.4 8 Norte 27 Norte 0 -- -- 86
2019-08-29 21:00:00 18.1 10 Norte 33 Norte 0 -- -- 84
2019-08-29 20:00:00 19.8 10 Norte 31 Norte 0 -- -- 77
2019-08-29 19:00:00 22.7 15 Norte 35 Norte 0 -- -- 66
2019-08-29 18:00:00 27.7 10 Norte 23 Sur 0 -- -- 46
2019-08-29 17:00:00 28 8 Sudoeste 31 Sudoeste 0 -- -- 39
2019-08-29 16:00:00 27.7 7 Sur 30 Sudoeste 0 -- -- 40
2019-08-29 15:00:00 27.2 10 Sudoeste 28 Sudoeste 0 -- -- 40
2019-08-29 14:00:00 26.8 14 Sur 26 Sudoeste 0 -- -- 46
2019-08-29 13:00:00 25 4 Nordeste 8 Norte 0 -- -- 61
2019-08-29 12:00:00 21.5 3 Nordeste 9 Nordeste 0 -- -- 73
2019-08-29 11:00:00 18.5 5 Nordeste 8 Norte 0 -- -- 82
2019-08-29 10:00:00 15 2 Sudeste 8 Este 0 -- -- 93
2019-08-29 09:00:00 14.1 7 Este 15 Este 0 -- -- 96
2019-08-29 08:00:00 14.2 8 Este 11 Este 0 -- -- 95
2019-08-29 07:00:00 14.6 5 Este 11 Este 0 -- -- 95
2019-08-29 06:00:00 14.9 6 Este 13 Este 0 -- -- 94
2019-08-29 05:00:00 15.1 7 Este 11 Este 0 -- -- 92
2019-08-29 04:00:00 15.3 5 Este 9 Este 0 -- -- 92
2019-08-29 03:00:00 15.4 3 Este 6 Nordeste 0 -- -- 91
2019-08-29 02:00:00 15.6 4 Nordeste 9 Nordeste 0 -- -- 90
2019-08-29 01:00:00 15.9 5 Nordeste 17 Norte 0 -- -- 90
2019-08-29 00:00:00 16.3 8 Nordeste 21 Nordeste 0 -- -- 90
2019-08-28 23:00:00 16.9 8 Norte 20 Nordeste 0 -- -- 87
2019-08-28 22:00:00 17.3 6 Sur 22 Nordeste 0 -- -- 86
2019-08-28 21:00:00 18.5 10 Noroeste 30 Nordeste 0 -- -- 82
2019-08-28 20:00:00 21.8 8 Norte 21 Norte 0 -- -- 69
2019-08-28 19:00:00 26.2 9 Sur 17 Sur 0 -- -- 48
2019-08-28 18:00:00 26.6 3 Sudeste 18 Sur 0 -- -- 46
2019-08-28 17:00:00 26.6 8 Sudoeste 18 Sudoeste 0 -- -- 44
2019-08-28 16:00:00 26.5 3 Oeste 21 Sur 0 -- -- 44
2019-08-28 15:00:00 25.9 8 Sudoeste 23 Sudoeste 0 -- -- 49
2019-08-28 14:00:00 26.1 4 Norte 10 Nordeste 0 -- -- 49
2019-08-28 13:00:00 23.9 5 Nordeste 8 Norte 0 -- -- 59
2019-08-28 12:00:00 20.4 4 Nordeste 8 Nordeste 0 -- -- 72
2019-08-28 11:00:00 16.4 4 Nordeste 6 Nordeste 0 -- -- 85
2019-08-28 10:00:00 13.1 2 Este 7 Este 0 -- -- 96
2019-08-28 09:00:00 11.9 5 Este 8 Este 0 -- -- 97
2019-08-28 08:00:00 11.9 2 Sudeste 5 Nordeste 0 -- -- 97
2019-08-28 07:00:00 11.8 0 Calma 6 Sudeste 0 -- -- 97
2019-08-28 06:00:00 11.8 3 Sudeste 6 Este 0 -- -- 97
2019-08-28 05:00:00 12 0 Calma 5 Este 0 -- -- 96
2019-08-28 04:00:00 12.2 2 Norte 4 Norte 0 -- -- 94
2019-08-28 03:00:00 12.2 0 Calma 4 Sur 0 -- -- 95
2019-08-28 02:00:00 12.7 0 Calma 5 Noroeste 0 -- -- 94
2019-08-28 01:00:00 13.5 0 Calma 4 Sudoeste 0 -- -- 93
2019-08-28 00:00:00 14.5 0 Calma 4 Norte 0 -- -- 91
2019-08-27 23:00:00 15.5 0 Calma 8 Noroeste 0 -- -- 89
2019-08-27 22:00:00 17.3 2 Norte 9 Norte 0 -- -- 82
2019-08-27 21:00:00 18.5 5 Noroeste 18 Norte 0 -- -- 78
2019-08-27 20:00:00 19.5 10 Norte 26 Norte 0 -- -- 73
2019-08-27 19:00:00 22.8 19 Norte 29 Norte 0 -- -- 64
2019-08-27 18:00:00 23.6 17 Norte 30 Norte 0 -- -- 59
2019-08-27 17:00:00 25.1 17 Norte 22 Norte 0 -- -- 56
2019-08-27 16:00:00 25.8 9 Norte 13 Norte 0 -- -- 49
2019-08-27 15:00:00 24.5 5 Nordeste 7 Norte 0 -- -- 47
2019-08-27 14:00:00 23 5 Nordeste 8 Nordeste 0 -- -- 55
2019-08-27 13:00:00 21.3 5 Nordeste 8 Norte 0 -- -- 62
2019-08-27 12:00:00 18 5 Nordeste 10 Norte 0 -- -- 74
2019-08-27 11:00:00 14.9 4 Nordeste 9 Este 0 -- -- 84
2019-08-27 10:00:00 11.7 4 Este 11 Este 0 -- -- 95
2019-08-27 09:00:00 10.9 6 Este 12 Este 0 -- -- 97
2019-08-27 08:00:00 10.7 6 Este 15 Este 0 -- -- 96
2019-08-27 07:00:00 10.6 8 Este 14 Este 0 -- -- 97
2019-08-27 06:00:00 10.3 2 Sudeste 9 Este 0 -- -- 97
2019-08-27 05:00:00 10.6 0 Calma 13 Este 0 -- -- 96
2019-08-27 04:00:00 11.1 2 Este 8 Sudoeste 0 -- -- 96
2019-08-27 03:00:00 12 3 Oeste 12 Noroeste 0 -- -- 95
2019-08-27 02:00:00 12.4 6 Norte 17 Sur 0 -- -- 96
2019-08-27 01:00:00 12.4 0 Calma 12 Sudeste 0 -- -- 93
2019-08-27 00:00:00 13.3 4 Sudoeste 13 Norte 0 -- -- 91
2019-08-26 23:00:00 14.6 0 Calma 8 Sudeste 0 -- -- 89
2019-08-26 22:00:00 15.3 3 Sur 9 Sur 0 -- -- 89
2019-08-26 21:00:00 16.4 6 Sudeste 17 Norte 0 -- -- 84
2019-08-26 20:00:00 17.2 7 Noroeste 35 Norte 0 -- -- 78
2019-08-26 19:00:00 18.1 6 Noroeste 36 Norte 0.6 -- -- 80
2019-08-26 18:00:00 20.6 5 Oeste 10 Noroeste 0 -- -- 66
2019-08-26 17:00:00 21.5 0 Calma 10 Sur 0 -- -- 65
2019-08-26 16:00:00 21.1 3 Sudoeste 24 Sur 0 -- -- 62
2019-08-26 15:00:00 21.7 10 Sudoeste 19 Sur 0 -- -- 62
2019-08-26 14:00:00 22 7 Nordeste 17 Sudeste 0 -- -- 66
2019-08-26 13:00:00 19.3 4 Sur 11 Oeste 0 -- -- 75
2019-08-26 12:00:00 18.2 5 Nordeste 15 Este 0 -- -- 81
2019-08-26 11:00:00 15.5 6 Este 24 Sudeste 0 -- -- 91
2019-08-26 10:00:00 14.2 5 Este 22 Sudeste 0 -- -- 94
2019-08-26 09:00:00 13.5 3 Este 6 Este 0 -- -- 97
2019-08-26 08:00:00 12.3 3 Noroeste 6 Noroeste 0 -- -- 97
2019-08-26 07:00:00 12.7 0 Calma 12 Este 0 -- -- 95
2019-08-26 06:00:00 13.1 3 Noroeste 10 Noroeste 0 -- -- 96
2019-08-26 05:00:00 13.6 5 Sudeste 10 Sudeste 0.8 -- -- 95
2019-08-26 04:00:00 13.9 5 Sudoeste 14 Este 2.4 -- -- 94
2019-08-26 03:00:00 14.1 5 Sudoeste 13 Sudeste 1.8 -- -- 93
2019-08-26 02:00:00 14.1 2 Norte 8 Sur 2.4 -- -- 94
2019-08-26 01:00:00 14 3 Sur 4 Noroeste 0 -- -- 93
2019-08-26 00:00:00 14.3 3 Sudoeste 14 Sudoeste 0.8 -- -- 92
2019-08-25 23:00:00 14.5 5 Sudoeste 13 Sudeste 0.8 -- -- 89
2019-08-25 22:00:00 15.4 7 Sudeste 18 Este 0.6 -- -- 86
2019-08-25 21:00:00 15.7 7 Sudoeste 14 Este 0.2 -- -- 85
2019-08-25 20:00:00 15.5 3 Sudoeste 10 Oeste 0.2 -- -- 88
2019-08-25 19:00:00 15.8 3 Sur 48 Sudeste 1.2 -- -- 87
2019-08-25 18:00:00 21.1 8 Norte 35 Norte 0 -- -- 61
2019-08-25 17:00:00 23.4 23 Norte 36 Nordeste 0 -- -- 55
2019-08-25 16:00:00 22 11 Norte 35 Norte 0 -- -- 59
2019-08-25 15:00:00 23.8 19 Norte 31 Nordeste 0 -- -- 57
2019-08-25 14:00:00 22.7 14 Nordeste 22 Nordeste 0 -- -- 60
2019-08-25 13:00:00 21.5 8 Oeste 17 Oeste 0 -- -- 54
2019-08-25 12:00:00 22 7 Norte 12 Nordeste 0 -- -- 61
2019-08-25 11:00:00 18.4 0 Calma 6 Norte 0 -- -- 73
2019-08-25 10:00:00 15.9 3 Nordeste 7 Este 0 -- -- 83
2019-08-25 09:00:00 14.4 3 Sudeste 6 Nordeste 0 -- -- 86
2019-08-25 08:00:00 12.4 0 Calma 4 Norte 0 -- -- 92
2019-08-25 07:00:00 12.2 0 Calma 4 Sudoeste 0 -- -- 92
2019-08-25 06:00:00 12.2 0 Calma 3 Sudeste 0 -- -- 91
2019-08-25 05:00:00 12.4 0 Calma 4 Noroeste 0 -- -- 89
2019-08-25 04:00:00 12.8 0 Calma 5 Noroeste 0 -- -- 90
2019-08-25 03:00:00 13.6 0 Calma 4 Norte 0 -- -- 88
2019-08-25 02:00:00 14.4 0 Calma 6 Norte 0 -- -- 87
2019-08-25 01:00:00 15.5 3 Noroeste 10 Norte 0 -- -- 84
2019-08-25 00:00:00 16.8 3 Noroeste 10 Nordeste 0 -- -- 77
2019-08-24 23:00:00 18.1 2 Sur 17 Nordeste 0 -- -- 76
2019-08-24 22:00:00 19.1 4 Este 23 Nordeste 0 -- -- 73
2019-08-24 21:00:00 20.7 7 Este 31 Nordeste 0 -- -- 70
2019-08-24 20:00:00 22.6 8 Norte 27 Norte 0 -- -- 65
2019-08-24 19:00:00 26.6 7 Norte 22 Norte 0 -- -- 48
2019-08-24 18:00:00 28.1 6 Sudoeste 22 Sur 0 -- -- 34
2019-08-24 17:00:00 28.6 4 Noroeste 24 Oeste 0 -- -- 35
2019-08-24 16:00:00 28.8 7 Sudoeste 24 Sudoeste 0 -- -- 33
2019-08-24 15:00:00 28.3 8 Oeste 29 Sudoeste 0 -- -- 33
2019-08-24 14:00:00 29 8 Sur 30 Sur 0 -- -- 34
2019-08-24 13:00:00 26.6 6 Nordeste 9 Nordeste 0 -- -- 40
2019-08-24 12:00:00 22 3 Nordeste 6 Nordeste 0 -- -- 53
2019-08-24 11:00:00 18.3 4 Nordeste 6 Nordeste 0 -- -- 63
2019-08-24 10:00:00 14.5 3 Nordeste 8 Nordeste 0 -- -- 76
2019-08-24 09:00:00 11 2 Este 4 Sudeste 0 -- -- 88
2019-08-24 08:00:00 8.5 0 Calma 3 Nordeste 0 -- -- 93
2019-08-24 07:00:00 8.7 0 Calma 2 Nordeste 0 -- -- 91
2019-08-24 06:00:00 9.3 0 Calma 3 Norte 0 -- -- 90
2019-08-24 05:00:00 9.9 0 Calma 4 Nordeste 0 -- -- 89
2019-08-24 04:00:00 10.7 0 Calma 4 Noroeste 0 -- -- 87
2019-08-24 03:00:00 11.7 0 Calma 2 Nordeste 0 -- -- 85
2019-08-24 02:00:00 12.8 0 Calma 4 Norte 0 -- -- 82
2019-08-24 01:00:00 13.9 2 Norte 5 Noroeste 0 -- -- 77
2019-08-24 00:00:00 15.2 3 Noroeste 8 Noroeste 0 -- -- 72
2019-08-23 23:00:00 17 2 Noroeste 4 Noroeste 0 -- -- 65
2019-08-23 22:00:00 19.6 3 Oeste 7 Sudeste 0 -- -- 56
2019-08-23 21:00:00 22.7 5 Noroeste 30 Nordeste 0 -- -- 45
2019-08-23 20:00:00 24.6 17 Norte 33 Norte 0 -- -- 41
2019-08-23 19:00:00 27.1 15 Norte 26 Norte 0 -- -- 36
2019-08-23 18:00:00 28.5 9 Norte 25 Norte 0 -- -- 32
2019-08-23 17:00:00 29.7 13 Norte 20 Norte 0 -- -- 31
2019-08-23 16:00:00 29.6 11 Norte 19 Norte 0 -- -- 26
2019-08-23 15:00:00 28.9 6 Nordeste 10 Norte 0 -- -- 27
2019-08-23 14:00:00 27.5 4 Nordeste 7 Nordeste 0 -- -- 34
2019-08-23 13:00:00 23.5 4 Nordeste 6 Nordeste 0 -- -- 45
2019-08-23 12:00:00 19.6 3 Nordeste 6 Nordeste 0 -- -- 53
2019-08-23 11:00:00 15.3 4 Nordeste 6 Nordeste 0 -- -- 73
2019-08-23 10:00:00 11.8 3 Nordeste 6 Nordeste 0 -- -- 82
2019-08-23 09:00:00 9.2 2 Nordeste 5 Nordeste 0 -- -- 91
2019-08-23 08:00:00 6.1 2 Norte 4 Noroeste 0 -- -- 95
2019-08-23 07:00:00 6.4 0 Calma 3 Noroeste 0 -- -- 94
2019-08-23 06:00:00 6.9 0 Calma 3 Norte 0 -- -- 95
2019-08-23 05:00:00 7.6 0 Calma 6 Norte 0 -- -- 92
2019-08-23 04:00:00 8.2 0 Calma 4 Sur 0 -- -- 90
2019-08-23 03:00:00 9.3 0 Calma 6 Noroeste 0 -- -- 87
2019-08-23 02:00:00 10.4 0 Calma 3 Noroeste 0 -- -- 86
2019-08-23 01:00:00 11.5 0 Calma 3 Sur 0 -- -- 82
2019-08-23 00:00:00 13.1 0 Calma 3 Norte 0 -- -- 79